Time;durP1;ratioP1;P1;durP2;ratioP2;P2;SDS_P1;SDS_P2;PMS_P1;PMS_P2;Temp;Humidity;BMP_temperature;BMP_pressure;BME280_temperature;BME280_humidity;BME280_pressure;Samples;Min_cycle;Max_cycle;Signal;HPM_P1;HPM_P2
2023/10/09 00:01:38;;;;;;;11.30;5.60;;;11.50;99.90;;;;;;2093904;28;20032;-78
2023/10/09 00:02:43;;;;;;;8.55;5.65;;;11.50;99.90;;;;;;2086367;28;20503;-78
2023/10/09 00:03:53;;;;;;;9.10;5.38;;;11.50;99.90;;;;;;2083648;28;20040;-77
2023/10/09 00:04:56;;;;;;;9.10;5.57;;;11.50;99.90;;;;;;2084786;28;20035;-77
2023/10/09 00:05:58;;;;;;;11.40;5.70;;;11.50;99.90;;;;;;2089610;28;20066;-78
2023/10/09 00:06:59;;;;;;;11.07;5.50;;;11.50;99.90;;;;;;2091917;28;20028;-78
2023/10/09 00:08:03;;;;;;;10.68;5.70;;;11.50;99.90;;;;;;2093113;28;20020;-78
2023/10/09 00:09:30;;;;;;;8.93;4.93;;;11.50;99.90;;;;;;2090047;28;20300;-77
2023/10/09 00:10:44;;;;;;;9.80;5.30;;;11.50;99.90;;;;;;2088712;28;20028;-78
2023/10/09 00:11:45;;;;;;;10.75;5.25;;;11.50;99.90;;;;;;2078777;28;20643;-78
2023/10/09 00:12:48;;;;;;;8.75;5.28;;;11.50;99.90;;;;;;2073674;28;20075;-80
2023/10/09 00:13:49;;;;;;;10.57;5.53;;;11.60;99.90;;;;;;2086665;28;20071;-77
2023/10/09 00:14:52;;;;;;;8.70;5.55;;;11.60;99.90;;;;;;2093420;28;20055;-77
2023/10/09 00:15:59;;;;;;;9.45;5.13;;;11.60;99.90;;;;;;2093657;28;20085;-77
2023/10/09 00:18:13;;;;;;;7.78;5.30;;;11.60;99.90;;;;;;2075169;28;20477;-78
2023/10/09 00:19:19;;;;;;;8.63;5.07;;;11.70;99.90;;;;;;2091144;28;20020;-78
2023/10/09 00:20:24;;;;;;;11.93;5.40;;;11.70;99.90;;;;;;2082103;28;20075;-77
2023/10/09 00:21:27;;;;;;;11.07;5.40;;;11.70;99.90;;;;;;2094548;28;20024;-78
2023/10/09 00:22:29;;;;;;;8.45;5.10;;;11.70;99.90;;;;;;2098240;28;20048;-78
2023/10/09 00:23:33;;;;;;;10.10;5.18;;;11.70;99.90;;;;;;2094312;28;20043;-77
2023/10/09 00:24:34;;;;;;;8.52;5.13;;;11.70;99.90;;;;;;2087133;28;20442;-77
2023/10/09 00:25:36;;;;;;;6.82;4.88;;;11.70;99.90;;;;;;2086532;28;20024;-76
2023/10/09 00:26:44;;;;;;;10.90;5.40;;;11.70;99.90;;;;;;2083473;28;20116;-76
2023/10/09 00:27:48;;;;;;;10.48;5.10;;;11.80;99.90;;;;;;2080414;28;20552;-78
2023/10/09 00:28:51;;;;;;;10.93;5.80;;;11.80;99.90;;;;;;2086856;28;20024;-77
2023/10/09 00:29:54;;;;;;;7.32;4.70;;;11.80;99.90;;;;;;2083822;28;20032;-78
2023/10/09 00:30:55;;;;;;;9.73;5.50;;;11.80;99.90;;;;;;2087990;28;20618;-78
2023/10/09 00:32:05;;;;;;;8.55;5.13;;;11.80;99.90;;;;;;2093481;28;20107;-79
2023/10/09 00:33:07;;;;;;;9.68;5.38;;;11.80;99.90;;;;;;2092467;28;20027;-79
2023/10/09 00:34:14;;;;;;;8.93;5.15;;;11.80;99.90;;;;;;2086876;28;20082;-78
2023/10/09 00:36:49;;;;;;;8.60;4.93;;;11.80;99.90;;;;;;2084960;28;20468;-78
2023/10/09 00:37:54;;;;;;;9.50;5.10;;;11.80;99.90;;;;;;2085302;28;20097;-78
2023/10/09 00:38:57;;;;;;;6.95;4.60;;;11.80;99.90;;;;;;2085501;28;20033;-78
2023/10/09 00:39:58;;;;;;;10.85;4.88;;;11.80;99.90;;;;;;2085835;28;20526;-77
2023/10/09 00:42:12;;;;;;;8.57;5.00;;;11.80;99.90;;;;;;2092299;28;20023;-78
2023/10/09 00:43:13;;;;;;;11.68;5.38;;;11.80;99.90;;;;;;2085105;28;20287;-78
2023/10/09 00:44:14;;;;;;;10.20;5.25;;;11.80;99.90;;;;;;2076566;28;20468;-79
2023/10/09 00:45:32;;;;;;;9.98;5.20;;;11.80;99.90;;;;;;2080689;28;20018;-79
2023/10/09 00:46:34;;;;;;;8.50;4.75;;;11.80;99.90;;;;;;2084413;28;20543;-78
2023/10/09 00:47:36;;;;;;;11.15;5.28;;;11.80;99.90;;;;;;2083822;28;20057;-77
2023/10/09 00:48:40;;;;;;;9.32;5.57;;;11.70;99.90;;;;;;2086253;28;20033;-79
2023/10/09 00:49:43;;;;;;;10.75;5.53;;;11.80;99.90;;;;;;2095735;28;20118;-77
2023/10/09 00:50:52;;;;;;;9.85;5.18;;;11.70;99.90;;;;;;2082285;28;20040;-77
2023/10/09 00:51:56;;;;;;;9.57;5.13;;;11.80;99.90;;;;;;2086039;28;20592;-79
2023/10/09 00:53:02;;;;;;;10.20;5.30;;;11.80;99.90;;;;;;2078047;28;20034;-78
2023/10/09 00:54:14;;;;;;;10.32;5.43;;;11.70;99.90;;;;;;2082584;28;20025;-78
2023/10/09 00:55:20;;;;;;;9.05;5.18;;;11.70;99.90;;;;;;2078265;28;20017;-78
2023/10/09 00:57:27;;;;;;;10.77;6.00;;;11.70;99.90;;;;;;2088248;28;20115;-79
2023/10/09 00:58:30;;;;;;;11.02;5.45;;;11.80;99.90;;;;;;2085760;28;20071;-74
2023/10/09 00:59:38;;;;;;;9.30;5.70;;;11.80;99.90;;;;;;2082096;28;20033;-78
2023/10/09 01:00:46;;;;;;;9.75;4.97;;;11.80;99.90;;;;;;2078393;28;20040;-78
2023/10/09 01:02:04;;;;;;;7.68;5.30;;;11.80;99.90;;;;;;2076701;28;20018;-78
2023/10/09 01:04:18;;;;;;;11.60;5.53;;;11.80;99.90;;;;;;2088735;28;20032;-77
2023/10/09 01:05:19;;;;;;;9.88;5.15;;;11.80;99.90;;;;;;2087162;28;20028;-77
2023/10/09 01:06:29;;;;;;;11.02;5.22;;;11.80;99.90;;;;;;2081803;28;20201;-78
2023/10/09 01:07:31;;;;;;;8.88;5.15;;;11.80;99.90;;;;;;2083007;28;20400;-78
2023/10/09 01:09:06;;;;;;;9.85;5.60;;;11.80;99.90;;;;;;2077662;28;20564;-79
2023/10/09 01:09:55;;;;;;;;;;;11.80;99.90;;;;;;2088774;28;20049;-78
2023/10/09 01:10:57;;;;;;;11.27;5.05;;;11.80;99.90;;;;;;2096338;28;19920;-77
2023/10/09 01:13:03;;;;;;;9.90;5.20;;;11.90;99.90;;;;;;2082196;28;20432;-77
2023/10/09 01:14:11;;;;;;;10.25;5.40;;;11.90;99.90;;;;;;2086000;28;20481;-77
2023/10/09 01:15:36;;;;;;;9.75;5.78;;;11.90;99.90;;;;;;2073587;28;20031;-77
2023/10/09 01:16:33;;;;;;;9.05;5.38;;;11.90;99.90;;;;;;2100304;28;20028;-77
2023/10/09 01:17:38;;;;;;;10.15;5.30;;;11.80;99.90;;;;;;2086058;28;20444;-78
2023/10/09 01:18:40;;;;;;;10.63;5.32;;;11.80;99.90;;;;;;2071513;28;20099;-77
2023/10/09 01:19:43;;;;;;;10.48;4.93;;;11.80;99.90;;;;;;2098986;28;20085;-77
2023/10/09 01:20:45;;;;;;;10.38;5.38;;;11.80;99.90;;;;;;2085727;28;20036;-77
2023/10/09 01:21:46;;;;;;;8.77;5.28;;;11.80;99.90;;;;;;2082407;28;20106;-77
2023/10/09 01:22:50;;;;;;;8.05;5.15;;;11.80;99.90;;;;;;2096107;28;20338;-77
2023/10/09 01:24:04;;;;;;;9.02;5.20;;;11.80;99.90;;;;;;2096220;28;20443;-77
2023/10/09 01:25:06;;;;;;;10.35;5.22;;;11.80;99.90;;;;;;2079750;28;20208;-77
2023/10/09 01:26:06;;;;;;;11.30;5.30;;;11.80;99.90;;;;;;2078915;28;20052;-76
2023/10/09 01:27:16;;;;;;;7.45;5.13;;;11.80;99.90;;;;;;2083824;28;20860;-75
2023/10/09 01:28:18;;;;;;;7.70;4.80;;;11.80;99.90;;;;;;2088324;28;20033;-77
2023/10/09 01:29:21;;;;;;;9.38;5.28;;;11.80;99.90;;;;;;2080877;28;20065;-77
2023/10/09 01:30:23;;;;;;;9.77;5.20;;;11.80;99.90;;;;;;2089977;28;20032;-77
2023/10/09 01:31:26;;;;;;;7.70;5.00;;;11.80;99.90;;;;;;2097028;28;20038;-77
2023/10/09 01:32:26;;;;;;;8.30;5.45;;;11.90;99.90;;;;;;2087405;28;20032;-77
2023/10/09 01:33:28;;;;;;;8.85;5.10;;;11.80;99.90;;;;;;2088778;28;20580;-78
2023/10/09 01:34:41;;;;;;;9.25;5.70;;;11.80;99.90;;;;;;2078417;28;20028;-78
2023/10/09 01:35:48;;;;;;;8.77;4.95;;;11.80;99.90;;;;;;2084914;28;20028;-78
2023/10/09 01:36:49;;;;;;;9.25;5.18;;;11.80;99.90;;;;;;2088250;28;20029;-78
2023/10/09 01:37:51;;;;;;;8.82;5.13;;;11.90;99.90;;;;;;2099275;28;20099;-78
2023/10/09 01:38:53;;;;;;;7.40;4.78;;;11.90;99.90;;;;;;2087693;28;20639;-77
2023/10/09 01:39:59;;;;;;;7.68;5.03;;;11.90;99.90;;;;;;2079214;28;20564;-78
2023/10/09 01:41:08;;;;;;;8.18;5.50;;;11.90;99.90;;;;;;2077082;28;20025;-78
2023/10/09 01:42:10;;;;;;;8.52;5.00;;;11.80;99.90;;;;;;2080598;28;20459;-77
2023/10/09 01:43:10;;;;;;;7.93;5.13;;;11.90;99.90;;;;;;2090034;28;20024;-77
2023/10/09 01:44:12;;;;;;;9.95;5.47;;;11.80;99.90;;;;;;2094386;28;20035;-76
2023/10/09 01:45:27;;;;;;;7.57;5.13;;;11.90;99.90;;;;;;2099649;28;20082;-77
2023/10/09 01:46:27;;;;;;;7.78;5.03;;;11.90;99.90;;;;;;2096250;28;20403;-77
2023/10/09 01:47:31;;;;;;;8.63;4.95;;;11.90;99.90;;;;;;2086092;28;20058;-78
2023/10/09 01:48:37;;;;;;;9.18;5.03;;;11.90;99.90;;;;;;2088129;28;20438;-77
2023/10/09 01:49:41;;;;;;;8.98;5.10;;;11.90;99.90;;;;;;2083670;28;20048;-77
2023/10/09 01:50:42;;;;;;;10.05;5.38;;;11.90;99.90;;;;;;2075043;28;20033;-78
2023/10/09 01:51:42;;;;;;;8.68;5.38;;;11.90;99.90;;;;;;2082900;28;20035;-76
2023/10/09 01:52:43;;;;;;;7.68;4.90;;;11.90;99.90;;;;;;2084666;28;20024;-79
2023/10/09 01:53:47;;;;;;;7.18;5.00;;;11.90;99.90;;;;;;2087480;28;20491;-78
2023/10/09 01:54:51;;;;;;;6.35;5.13;;;12.00;99.90;;;;;;2087045;28;20037;-78
2023/10/09 01:55:55;;;;;;;7.50;4.90;;;12.00;99.90;;;;;;2080163;28;20083;-79
2023/10/09 01:56:56;;;;;;;11.90;5.18;;;12.00;99.90;;;;;;2081726;28;20037;-78
2023/10/09 01:57:58;;;;;;;8.00;4.65;;;12.00;99.90;;;;;;2077933;28;20471;-77
2023/10/09 01:59:05;;;;;;;8.65;5.03;;;12.10;99.90;;;;;;2079069;28;20028;-76
2023/10/09 02:00:07;;;;;;;8.10;5.00;;;12.10;99.90;;;;;;2073070;28;20104;-77
2023/10/09 02:01:14;;;;;;;10.02;5.20;;;12.00;99.90;;;;;;2087277;28;20091;-76
2023/10/09 02:02:35;;;;;;;8.70;5.07;;;12.10;99.90;;;;;;2084231;28;20199;-76
2023/10/09 02:03:41;;;;;;;8.35;5.13;;;12.10;99.90;;;;;;2090136;28;20036;-76
2023/10/09 02:04:42;;;;;;;8.50;5.07;;;12.00;99.90;;;;;;2088265;28;20040;-77
2023/10/09 02:05:43;;;;;;;8.45;5.63;;;12.10;99.90;;;;;;2098047;28;20518;-77
2023/10/09 02:06:43;;;;;;;8.63;5.68;;;12.00;99.90;;;;;;2086176;28;20029;-77
2023/10/09 02:07:44;;;;;;;7.97;5.38;;;12.00;99.90;;;;;;2078263;28;20021;-77
2023/10/09 02:08:49;;;;;;;10.07;5.07;;;12.00;99.90;;;;;;2079157;28;20369;-77
2023/10/09 02:09:50;;;;;;;9.00;5.05;;;12.00;99.90;;;;;;2087801;28;20438;-78
2023/10/09 02:10:54;;;;;;;8.27;5.28;;;12.10;99.90;;;;;;2075679;28;20104;-77
2023/10/09 02:11:55;;;;;;;9.52;5.75;;;12.10;99.90;;;;;;2080169;28;20025;-78
2023/10/09 02:12:58;;;;;;;8.52;5.30;;;12.00;99.90;;;;;;2087281;28;20025;-77
2023/10/09 02:14:00;;;;;;;7.75;5.35;;;12.00;99.90;;;;;;2091787;28;20675;-76
2023/10/09 02:15:08;;;;;;;10.52;5.57;;;12.00;99.90;;;;;;2093355;28;20036;-78
2023/10/09 02:16:15;;;;;;;8.50;5.63;;;12.00;99.90;;;;;;2081530;28;20025;-77
2023/10/09 02:17:20;;;;;;;9.40;5.47;;;12.00;99.90;;;;;;2079807;28;20442;-78
2023/10/09 02:19:34;;;;;;;8.48;5.90;;;12.00;99.90;;;;;;2083807;28;20108;-78
2023/10/09 02:20:37;;;;;;;7.13;5.63;;;12.00;99.90;;;;;;2078653;28;20034;-78
2023/10/09 02:21:41;;;;;;;9.07;6.03;;;11.90;99.90;;;;;;2085430;28;20067;-78
2023/10/09 02:22:42;;;;;;;8.40;5.60;;;12.00;99.90;;;;;;2085741;28;20056;-77
2023/10/09 02:23:56;;;;;;;9.77;5.97;;;11.90;99.90;;;;;;2083634;28;20479;-78
2023/10/09 02:25:02;;;;;;;8.85;5.63;;;12.00;99.90;;;;;;2090413;28;20025;-78
2023/10/09 02:26:05;;;;;;;8.18;5.90;;;12.00;99.90;;;;;;2077825;28;20041;-78
2023/10/09 02:27:06;;;;;;;8.80;5.72;;;12.00;99.90;;;;;;2079296;28;20029;-79
2023/10/09 02:28:07;;;;;;;8.30;5.63;;;12.00;99.90;;;;;;2086841;28;20476;-77
2023/10/09 02:30:26;;;;;;;11.50;6.15;;;12.10;99.90;;;;;;2068940;28;20033;-78
2023/10/09 02:31:40;;;;;;;9.18;5.85;;;12.00;99.90;;;;;;2078225;28;20036;-78
2023/10/09 02:32:48;;;;;;;8.35;5.75;;;12.10;99.90;;;;;;2079254;28;20033;-76
2023/10/09 02:33:54;;;;;;;8.60;5.80;;;12.00;99.90;;;;;;2079644;28;20029;-77
2023/10/09 02:34:55;;;;;;;7.90;5.72;;;12.00;99.90;;;;;;2081232;28;20029;-74
2023/10/09 02:35:59;;;;;;;9.60;5.70;;;12.00;99.90;;;;;;2083588;28;20480;-73
2023/10/09 02:37:05;;;;;;;9.55;6.05;;;12.00;99.90;;;;;;2074800;28;20115;-74
2023/10/09 02:38:07;;;;;;;8.00;5.75;;;12.00;99.90;;;;;;2079790;28;20608;-73
2023/10/09 02:39:22;;;;;;;8.73;5.78;;;12.00;99.90;;;;;;2082815;28;20013;-73
2023/10/09 02:40:31;;;;;;;10.27;5.80;;;12.00;99.90;;;;;;2080323;28;20029;-73
2023/10/09 02:41:34;;;;;;;10.20;6.28;;;12.00;99.90;;;;;;2082392;28;20033;-73
2023/10/09 02:42:34;;;;;;;9.27;5.95;;;12.00;99.90;;;;;;2074761;28;20034;-71
2023/10/09 02:43:46;;;;;;;8.38;6.05;;;12.00;99.90;;;;;;2071018;28;20033;-73
2023/10/09 02:44:49;;;;;;;8.05;5.88;;;12.00;99.90;;;;;;2073435;28;20133;-73
2023/10/09 02:45:50;;;;;;;8.30;5.80;;;12.00;99.90;;;;;;2088975;28;20384;-73
2023/10/09 02:46:50;;;;;;;9.13;5.68;;;12.10;99.90;;;;;;2087785;28;20119;-73
2023/10/09 02:47:51;;;;;;;8.93;5.88;;;12.00;99.90;;;;;;2081230;28;20051;-73
2023/10/09 02:48:52;;;;;;;9.40;5.90;;;12.00;99.90;;;;;;2070748;28;20041;-73
2023/10/09 02:50:00;;;;;;;8.32;5.57;;;12.00;99.90;;;;;;2079286;28;20063;-73
2023/10/09 02:51:02;;;;;;;11.98;6.15;;;12.00;99.90;;;;;;2079351;28;20048;-73
2023/10/09 02:52:07;;;;;;;8.23;5.93;;;12.00;99.90;;;;;;2079145;28;20025;-72
2023/10/09 02:53:09;;;;;;;8.27;6.32;;;12.00;99.90;;;;;;2087602;28;20472;-73
2023/10/09 02:54:26;;;;;;;9.40;6.20;;;12.00;99.90;;;;;;2082536;28;20695;-71
2023/10/09 02:55:27;;;;;;;10.40;5.97;;;12.00;99.90;;;;;;2068507;28;20485;-72
2023/10/09 02:56:38;;;;;;;8.68;6.07;;;12.00;99.90;;;;;;2078651;28;20037;-72
2023/10/09 02:57:41;;;;;;;10.63;6.55;;;12.00;99.90;;;;;;2089908;28;20027;-72
2023/10/09 02:58:42;;;;;;;9.50;6.18;;;12.00;99.90;;;;;;2073016;28;20481;-71
2023/10/09 02:59:44;;;;;;;10.55;6.47;;;12.00;99.90;;;;;;2072389;28;20025;-72
2023/10/09 03:00:46;;;;;;;8.07;6.10;;;12.10;99.90;;;;;;2078585;28;20078;-71
2023/10/09 03:01:48;;;;;;;9.32;6.30;;;12.10;99.90;;;;;;2067600;28;20489;-72
2023/10/09 03:02:50;;;;;;;8.38;6.10;;;12.10;99.90;;;;;;2070368;28;20033;-73
2023/10/09 03:03:51;;;;;;;10.57;5.95;;;12.10;99.90;;;;;;2077634;28;20036;-72
2023/10/09 03:04:55;;;;;;;12.05;6.60;;;12.10;99.90;;;;;;2075004;28;20022;-72
2023/10/09 03:05:55;;;;;;;8.75;6.00;;;12.10;99.90;;;;;;2079247;28;20079;-72
2023/10/09 03:07:00;;;;;;;9.13;6.43;;;12.10;99.90;;;;;;2089516;28;20097;-72
2023/10/09 03:08:02;;;;;;;10.90;6.10;;;12.10;99.90;;;;;;2090612;28;20747;-76
2023/10/09 03:09:16;;;;;;;8.77;6.20;;;12.10;99.90;;;;;;2087462;28;20027;-77
2023/10/09 03:10:17;;;;;;;8.85;6.00;;;12.10;99.90;;;;;;2081021;28;20087;-77
2023/10/09 03:11:18;;;;;;;11.70;6.20;;;12.00;99.90;;;;;;2087157;28;20510;-77
2023/10/09 03:12:21;;;;;;;8.82;6.22;;;12.10;99.90;;;;;;2087494;28;20077;-77
2023/10/09 03:13:22;;;;;;;12.18;6.70;;;12.00;99.90;;;;;;2079866;28;20060;-78
2023/10/09 03:14:28;;;;;;;10.95;6.45;;;12.00;99.90;;;;;;2078647;28;20492;-77
2023/10/09 03:15:35;;;;;;;9.45;7.05;;;12.00;99.90;;;;;;2088738;28;20067;-76
2023/10/09 03:16:36;;;;;;;13.23;6.70;;;12.00;99.90;;;;;;2081871;28;20025;-76
2023/10/09 03:17:37;;;;;;;10.30;6.65;;;12.00;99.90;;;;;;2070448;28;20025;-76
2023/10/09 03:18:37;;;;;;;11.10;8.93;;;12.10;99.90;;;;;;2079025;28;20063;-76
2023/10/09 03:19:38;;;;;;;18.60;11.38;;;12.10;99.90;;;;;;2073711;28;20145;-77
2023/10/09 03:20:40;;;;;;;10.20;7.70;;;12.10;99.90;;;;;;2066452;28;20040;-77
2023/10/09 03:21:41;;;;;;;14.52;10.25;;;12.10;99.90;;;;;;2078627;28;20036;-77
2023/10/09 03:22:42;;;;;;;12.05;6.68;;;12.10;99.90;;;;;;2070175;28;20076;-77
2023/10/09 03:23:50;;;;;;;12.13;6.55;;;12.10;99.90;;;;;;2074668;28;20140;-76
2023/10/09 03:24:52;;;;;;;9.00;6.75;;;12.10;99.90;;;;;;2074570;28;20068;-75
2023/10/09 03:25:53;;;;;;;9.60;6.55;;;12.10;99.90;;;;;;2079985;28;20499;-76
2023/10/09 03:26:55;;;;;;;10.73;7.18;;;12.10;99.90;;;;;;2089148;28;20157;-75
2023/10/09 03:27:58;;;;;;;10.65;7.05;;;12.10;99.90;;;;;;2088641;28;20433;-76
2023/10/09 03:29:06;;;;;;;10.43;7.00;;;12.00;99.90;;;;;;2082827;28;20147;-76
2023/10/09 03:30:10;;;;;;;9.90;6.63;;;12.00;99.90;;;;;;2080134;28;20209;-76
2023/10/09 03:31:11;;;;;;;10.13;7.13;;;12.10;99.90;;;;;;2090672;28;20495;-76
2023/10/09 03:32:13;;;;;;;9.00;6.97;;;12.00;99.90;;;;;;2082772;28;20469;-75
2023/10/09 03:33:14;;;;;;;9.13;6.72;;;12.00;99.90;;;;;;2095698;28;20094;-75
2023/10/09 03:34:15;;;;;;;11.88;7.22;;;12.00;99.90;;;;;;2090388;28;20510;-75
2023/10/09 03:35:23;;;;;;;9.95;6.78;;;12.00;99.90;;;;;;2087280;28;20059;-76
2023/10/09 03:36:26;;;;;;;11.30;6.60;;;12.00;99.90;;;;;;2095590;28;20086;-77
2023/10/09 03:37:36;;;;;;;9.27;6.70;;;12.10;99.90;;;;;;2097402;28;20756;-75
2023/10/09 03:38:38;;;;;;;10.82;7.15;;;12.10;99.90;;;;;;2085587;28;20023;-76
2023/10/09 03:39:41;;;;;;;9.13;6.93;;;12.10;99.90;;;;;;2078725;28;20037;-76
2023/10/09 03:40:47;;;;;;;12.32;7.10;;;12.10;99.90;;;;;;2076864;28;20041;-77
2023/10/09 03:41:50;;;;;;;11.07;6.75;;;12.10;99.90;;;;;;2083306;28;20045;-76
2023/10/09 03:42:51;;;;;;;10.48;6.90;;;12.10;99.90;;;;;;2083534;28;20400;-76
2023/10/09 03:43:51;;;;;;;11.05;7.40;;;12.10;99.90;;;;;;2083546;28;20040;-76
2023/10/09 03:44:53;;;;;;;11.40;6.80;;;12.10;99.90;;;;;;2089110;28;20028;-76
2023/10/09 03:45:54;;;;;;;9.20;6.57;;;12.10;99.90;;;;;;2087896;28;20111;-77
2023/10/09 03:46:55;;;;;;;10.20;6.93;;;12.10;99.90;;;;;;2086509;28;20029;-77
2023/10/09 03:48:08;;;;;;;10.38;7.10;;;12.10;99.90;;;;;;2088874;28;20038;-76
2023/10/09 03:49:11;;;;;;;11.02;7.15;;;12.10;99.90;;;;;;2082147;28;20025;-77
2023/10/09 03:50:26;;;;;;;10.25;7.15;;;12.10;99.90;;;;;;2078876;28;20054;-77
2023/10/09 03:51:30;;;;;;;11.25;7.30;;;12.10;99.90;;;;;;2091950;28;20090;-76
2023/10/09 03:52:30;;;;;;;12.40;7.53;;;12.10;99.90;;;;;;2095458;28;20043;-77
2023/10/09 03:53:31;;;;;;;10.68;7.40;;;12.10;99.90;;;;;;2098198;28;20483;-77
2023/10/09 03:54:34;;;;;;;13.23;7.38;;;12.00;99.90;;;;;;2094676;28;20044;-77
2023/10/09 03:55:37;;;;;;;12.93;7.60;;;12.10;99.90;;;;;;2089846;28;20025;-76
2023/10/09 03:56:38;;;;;;;10.63;7.10;;;12.10;99.90;;;;;;2087014;28;20420;-76
2023/10/09 03:57:40;;;;;;;12.65;7.53;;;12.00;99.90;;;;;;2095054;28;20056;-76
2023/10/09 03:58:42;;;;;;;11.77;7.47;;;12.10;99.90;;;;;;2095406;28;20510;-75
2023/10/09 03:59:46;;;;;;;14.38;7.90;;;12.00;99.90;;;;;;2088652;28;20020;-73
2023/10/09 04:00:49;;;;;;;12.43;7.90;;;12.00;99.90;;;;;;2098729;28;20032;-78
2023/10/09 04:01:51;;;;;;;11.13;8.38;;;12.00;99.90;;;;;;2087062;28;20017;-78
2023/10/09 04:02:52;;;;;;;11.25;8.00;;;12.00;99.90;;;;;;2086261;28;20050;-75
2023/10/09 04:03:59;;;;;;;14.05;8.23;;;12.00;99.90;;;;;;2087845;28;20028;-76
2023/10/09 04:05:00;;;;;;;13.90;8.18;;;12.00;99.90;;;;;;2074890;28;20112;-75
2023/10/09 04:06:01;;;;;;;13.27;8.50;;;11.90;99.90;;;;;;2074774;28;20029;-75
2023/10/09 04:07:02;;;;;;;12.73;8.27;;;11.90;99.90;;;;;;2092890;28;20112;-76
2023/10/09 04:08:11;;;;;;;17.98;8.80;;;11.90;99.90;;;;;;2093906;28;20031;-76
2023/10/09 04:10:32;;;;;;;13.30;8.73;;;12.00;99.90;;;;;;2084604;28;20035;-76
2023/10/09 04:11:33;;;;;;;13.68;9.48;;;11.90;99.90;;;;;;2086307;28;20032;-77
2023/10/09 04:12:34;;;;;;;14.35;9.02;;;12.00;99.90;;;;;;2077023;28;20110;-71
2023/10/09 04:13:34;;;;;;;13.73;8.80;;;11.90;99.90;;;;;;2083707;28;20105;-71
2023/10/09 04:14:47;;;;;;;13.35;9.30;;;11.90;99.90;;;;;;2091374;28;20106;-74
2023/10/09 04:15:53;;;;;;;14.38;9.73;;;11.90;99.90;;;;;;2092800;28;20028;-72
2023/10/09 04:17:04;;;;;;;12.88;9.27;;;12.00;99.90;;;;;;2082097;28;20029;-72
2023/10/09 04:18:06;;;;;;;13.05;9.30;;;12.00;99.90;;;;;;2075788;28;20456;-72
2023/10/09 04:19:11;;;;;;;16.67;9.85;;;12.00;99.90;;;;;;2083588;28;20036;-72
2023/10/09 04:20:47;;;;;;;14.88;10.02;;;12.00;99.90;;;;;;2092538;28;20480;-71
2023/10/09 04:21:35;;;;;;;14.73;10.18;;;12.00;99.90;;;;;;2095076;28;20090;-72
2023/10/09 04:22:39;;;;;;;16.58;10.32;;;11.90;99.90;;;;;;2094598;28;20040;-74
2023/10/09 04:24:59;;;;;;;15.15;10.93;;;11.90;99.90;;;;;;2091726;28;20033;-72
2023/10/09 04:26:10;;;;;;;15.52;10.43;;;11.90;99.90;;;;;;2088300;28;20040;-72
2023/10/09 04:27:12;;;;;;;;;;;11.90;99.90;;;;;;2088070;28;20033;-73
2023/10/09 04:29:26;;;;;;;15.23;10.63;;;11.90;99.90;;;;;;2091428;28;20028;-73
2023/10/09 04:30:26;;;;;;;13.75;10.73;;;11.90;99.90;;;;;;2095386;28;20008;-73
2023/10/09 04:31:31;;;;;;;16.65;11.20;;;11.90;99.90;;;;;;2077932;28;20037;-73
2023/10/09 04:32:34;;;;;;;15.20;11.27;;;11.90;99.90;;;;;;2080587;28;20043;-73
2023/10/09 04:33:42;;;;;;;16.83;11.10;;;11.90;99.90;;;;;;2098219;28;20032;-73
2023/10/09 04:34:49;;;;;;;14.23;10.68;;;11.90;99.90;;;;;;2095344;28;20232;-73
2023/10/09 04:36:12;;;;;;;14.73;11.25;;;11.90;99.90;;;;;;2094582;28;20086;-73
2023/10/09 04:38:52;;;;;;;16.58;11.43;;;11.90;99.90;;;;;;2072583;28;20068;-73
2023/10/09 04:40:11;;;;;;;15.18;11.80;;;11.90;99.90;;;;;;2088080;28;20070;-71
2023/10/09 04:41:27;;;;;;;14.85;11.07;;;11.90;99.90;;;;;;2089280;28;20282;-73
2023/10/09 04:42:37;;;;;;;15.98;11.60;;;11.90;99.90;;;;;;2087534;28;20124;-73
2023/10/09 04:43:43;;;;;;;17.42;11.70;;;11.90;99.90;;;;;;2089359;28;20107;-73
2023/10/09 04:45:20;;;;;;;14.98;11.07;;;11.90;99.90;;;;;;2078752;28;20033;-73
2023/10/09 04:46:23;;;;;;;16.30;12.07;;;11.90;99.90;;;;;;2079017;28;20028;-73
2023/10/09 04:47:25;;;;;;;17.42;12.13;;;11.90;99.90;;;;;;2087769;28;20050;-73
2023/10/09 04:48:38;;;;;;;18.05;13.02;;;11.90;99.90;;;;;;2088628;28;20028;-73
2023/10/09 04:52:18;;;;;;;20.50;13.88;;;11.90;99.90;;;;;;2091143;28;20032;-72
2023/10/09 04:54:38;;;;;;;17.02;12.73;;;11.90;99.90;;;;;;2085529;28;20470;-73
2023/10/09 04:55:44;;;;;;;17.40;12.97;;;11.90;99.90;;;;;;2090989;28;20123;-73
2023/10/09 04:56:53;;;;;;;21.92;16.50;;;11.90;99.90;;;;;;2072355;28;20283;-73
2023/10/09 04:58:09;;;;;;;19.77;14.40;;;11.90;99.90;;;;;;2078961;28;20079;-73
2023/10/09 04:59:18;;;;;;;18.85;14.02;;;11.90;99.90;;;;;;2100018;28;20043;-72
2023/10/09 05:01:43;;;;;;;20.55;14.63;;;11.80;99.90;;;;;;2083304;28;20099;-73
2023/10/09 05:02:54;;;;;;;21.40;13.45;;;11.80;99.90;;;;;;2091339;28;20542;-73
2023/10/09 05:03:56;;;;;;;18.35;13.82;;;11.80;99.90;;;;;;2090868;28;20029;-73
2023/10/09 05:05:40;;;;;;;18.38;14.05;;;11.80;99.90;;;;;;2088793;28;20032;-73
2023/10/09 05:06:42;;;;;;;18.83;14.10;;;11.80;99.90;;;;;;2093357;28;20027;-72
2023/10/09 05:07:54;;;;;;;18.20;13.60;;;11.80;99.90;;;;;;2093179;28;20023;-72
2023/10/09 05:08:55;;;;;;;18.20;13.60;;;11.80;99.90;;;;;;2091339;28;20036;-73
2023/10/09 05:09:56;;;;;;;19.55;13.77;;;11.70;99.90;;;;;;2086174;28;20029;-74
2023/10/09 05:12:09;;;;;;;20.20;13.75;;;11.70;99.90;;;;;;2081647;28;20067;-73
2023/10/09 05:13:13;;;;;;;;;;;11.70;99.90;;;;;;2086543;28;20529;-73
2023/10/09 05:14:14;;;;;;;24.08;15.38;;;11.60;99.90;;;;;;2089427;28;19931;-73
2023/10/09 05:15:15;;;;;;;21.73;16.45;;;11.60;99.90;;;;;;2089985;28;20513;-73
2023/10/09 05:16:25;;;;;;;21.48;13.98;;;11.60;99.90;;;;;;2083182;28;20025;-73
2023/10/09 05:17:25;;;;;;;19.58;13.70;;;11.60;99.90;;;;;;2073839;28;20520;-73
2023/10/09 05:18:27;;;;;;;18.73;13.75;;;11.60;99.90;;;;;;2079621;28;20106;-72
2023/10/09 05:19:41;;;;;;;17.70;13.93;;;11.60;99.90;;;;;;2091746;28;20012;-72
2023/10/09 05:21:25;;;;;;;20.02;13.80;;;11.60;99.90;;;;;;2079303;28;20100;-72
2023/10/09 05:22:29;;;;;;;19.73;14.30;;;11.70;99.90;;;;;;2086084;28;20451;-72
2023/10/09 05:23:44;;;;;;;18.65;13.50;;;11.60;99.90;;;;;;2092249;28;20207;-72
2023/10/09 05:24:47;;;;;;;20.30;14.00;;;11.70;99.90;;;;;;2087139;28;20059;-73
2023/10/09 05:25:55;;;;;;;19.58;14.05;;;11.60;99.90;;;;;;2084162;28;20037;-72
2023/10/09 05:27:17;;;;;;;19.80;13.95;;;11.60;99.90;;;;;;2096581;28;20024;-72
2023/10/09 05:28:52;;;;;;;21.45;13.45;;;11.60;99.90;;;;;;2092477;28;20568;-73
2023/10/09 05:29:59;;;;;;;20.67;14.20;;;11.60;99.90;;;;;;2084575;28;20411;-73
2023/10/09 05:31:08;;;;;;;20.40;13.82;;;11.60;99.90;;;;;;2076480;28;20035;-72
2023/10/09 05:33:28;;;;;;;19.92;13.80;;;11.60;99.90;;;;;;2091629;28;20498;-73
2023/10/09 05:34:34;;;;;;;20.52;14.48;;;11.60;99.90;;;;;;2086418;28;20074;-72
2023/10/09 05:35:41;;;;;;;21.48;13.45;;;11.60;99.90;;;;;;2084888;28;20037;-72
2023/10/09 05:36:47;;;;;;;23.67;14.10;;;11.60;99.90;;;;;;2083415;28;20199;-72
2023/10/09 05:37:59;;;;;;;22.08;14.20;;;11.50;99.90;;;;;;2084535;28;20038;-71
2023/10/09 05:39:16;;;;;;;20.45;13.65;;;11.50;99.90;;;;;;2089876;28;20036;-71
2023/10/09 05:46:16;;;;;;;20.30;13.65;;;11.50;99.90;;;;;;2096559;28;20628;-75
2023/10/09 05:47:29;;;;;;;21.15;14.02;;;11.40;99.90;;;;;;2087590;28;20079;-76
2023/10/09 05:49:54;;;;;;;20.33;13.68;;;11.50;99.90;;;;;;2095473;28;20020;-73
2023/10/09 05:52:32;;;;;;;17.42;13.02;;;11.70;99.90;;;;;;2096426;28;20043;-72
2023/10/09 05:54:11;;;;;;;20.05;13.00;;;11.60;99.90;;;;;;2082876;28;20107;-73
2023/10/09 05:55:20;;;;;;;18.23;13.13;;;11.70;99.90;;;;;;2088911;28;20532;-75
2023/10/09 06:02:16;;;;;;;22.00;14.27;;;11.70;99.90;;;;;;2092297;28;20472;-72
2023/10/09 06:04:49;;;;;;;20.55;13.63;;;11.60;99.90;;;;;;2059561;28;20030;-72
2023/10/09 06:06:56;;;;;;;23.90;14.63;;;11.60;99.90;;;;;;2080819;28;20160;-74
2023/10/09 06:08:06;;;;;;;23.02;15.43;;;11.60;99.90;;;;;;2086502;28;20029;-74
2023/10/09 06:10:18;;;;;;;20.90;14.93;;;11.60;99.90;;;;;;2086916;28;20282;-79
2023/10/09 06:13:47;;;;;;;24.27;15.73;;;11.50;99.90;;;;;;2098563;28;20023;-74
2023/10/09 06:14:57;;;;;;;22.73;15.15;;;11.50;99.90;;;;;;2087473;28;20514;-74
2023/10/09 06:16:19;;;;;;;20.55;14.50;;;11.50;99.90;;;;;;2084527;28;20115;-74
2023/10/09 06:17:43;;;;;;;22.83;15.23;;;11.50;99.90;;;;;;2074433;28;20088;-73
2023/10/09 06:18:53;;;;;;;21.55;14.98;;;11.50;99.90;;;;;;2081435;28;20506;-78
2023/10/09 06:20:39;;;;;;;23.92;14.75;;;11.50;99.90;;;;;;2083556;28;20025;-78
2023/10/09 06:22:57;;;;;;;22.33;14.70;;;11.50;99.90;;;;;;2070110;28;20120;-78
2023/10/09 06:24:14;;;;;;;22.20;14.88;;;11.50;99.90;;;;;;2077106;28;20477;-78